sensor_id;sensor_type;location;lat;lon;timestamp;temperature;humidity
20827;DHT22;10574;52.508;13.236;2023-05-07T00:01:17;8.80;99.90
20827;DHT22;10574;52.508;13.236;2023-05-07T00:03:45;8.90;99.90
20827;DHT22;10574;52.508;13.236;2023-05-07T00:06:12;8.80;99.90
20827;DHT22;10574;52.508;13.236;2023-05-07T00:08:40;8.80;99.90
20827;DHT22;10574;52.508;13.236;2023-05-07T00:11:08;8.90;99.90
20827;DHT22;10574;52.508;13.236;2023-05-07T00:13:36;8.90;99.90
20827;DHT22;10574;52.508;13.236;2023-05-07T00:16:04;8.90;99.90
20827;DHT22;10574;52.508;13.236;2023-05-07T00:18:31;8.80;99.90
20827;DHT22;10574;52.508;13.236;2023-05-07T00:20:59;8.80;99.90
20827;DHT22;10574;52.508;13.236;2023-05-07T00:23:27;8.90;99.90
20827;DHT22;10574;52.508;13.236;2023-05-07T00:25:55;8.90;99.90
20827;DHT22;10574;52.508;13.236;2023-05-07T00:28:23;9.00;99.90
20827;DHT22;10574;52.508;13.236;2023-05-07T00:30:50;8.90;99.90
20827;DHT22;10574;52.508;13.236;2023-05-07T00:33:18;8.90;99.90
20827;DHT22;10574;52.508;13.236;2023-05-07T00:35:47;8.90;99.90
20827;DHT22;10574;52.508;13.236;2023-05-07T00:38:16;9.00;99.90
20827;DHT22;10574;52.508;13.236;2023-05-07T00:40:44;8.90;99.90
20827;DHT22;10574;52.508;13.236;2023-05-07T00:43:12;8.90;99.90
20827;DHT22;10574;52.508;13.236;2023-05-07T00:45:39;8.90;99.90
20827;DHT22;10574;52.508;13.236;2023-05-07T00:48:07;8.90;99.90
20827;DHT22;10574;52.508;13.236;2023-05-07T00:50:35;9.00;99.90
20827;DHT22;10574;52.508;13.236;2023-05-07T00:53:03;9.00;99.90
20827;DHT22;10574;52.508;13.236;2023-05-07T00:55:32;9.10;99.90
20827;DHT22;10574;52.508;13.236;2023-05-07T00:57:59;9.10;99.90
20827;DHT22;10574;52.508;13.236;2023-05-07T01:00:27;9.00;99.90
20827;DHT22;10574;52.508;13.236;2023-05-07T01:02:55;9.10;99.90
20827;DHT22;10574;52.508;13.236;2023-05-07T01:05:23;9.00;99.90
20827;DHT22;10574;52.508;13.236;2023-05-07T01:07:52;9.00;99.90
20827;DHT22;10574;52.508;13.236;2023-05-07T01:10:21;9.10;99.90
20827;DHT22;10574;52.508;13.236;2023-05-07T01:12:50;9.10;99.90
20827;DHT22;10574;52.508;13.236;2023-05-07T01:15:19;9.10;99.90
20827;DHT22;10574;52.508;13.236;2023-05-07T01:17:46;9.00;99.90
20827;DHT22;10574;52.508;13.236;2023-05-07T01:20:14;9.00;99.90
20827;DHT22;10574;52.508;13.236;2023-05-07T01:22:43;9.00;99.90
20827;DHT22;10574;52.508;13.236;2023-05-07T01:25:11;9.00;99.90
20827;DHT22;10574;52.508;13.236;2023-05-07T01:27:40;9.00;99.90
20827;DHT22;10574;52.508;13.236;2023-05-07T01:30:08;9.00;99.90
20827;DHT22;10574;52.508;13.236;2023-05-07T01:32:48;8.90;99.90
20827;DHT22;10574;52.508;13.236;2023-05-07T01:35:22;8.90;99.90
20827;DHT22;10574;52.508;13.236;2023-05-07T01:37:47;8.80;99.90
20827;DHT22;10574;52.508;13.236;2023-05-07T01:40:15;8.80;99.90
20827;DHT22;10574;52.508;13.236;2023-05-07T01:42:44;8.70;99.90
20827;DHT22;10574;52.508;13.236;2023-05-07T01:45:13;8.80;99.90
20827;DHT22;10574;52.508;13.236;2023-05-07T01:47:41;8.80;99.90
20827;DHT22;10574;52.508;13.236;2023-05-07T01:50:10;8.80;99.90
20827;DHT22;10574;52.508;13.236;2023-05-07T01:52:41;8.80;99.90
20827;DHT22;10574;52.508;13.236;2023-05-07T01:55:09;8.80;99.90
20827;DHT22;10574;52.508;13.236;2023-05-07T01:57:37;8.80;99.90
20827;DHT22;10574;52.508;13.236;2023-05-07T02:00:05;8.90;99.90
20827;DHT22;10574;52.508;13.236;2023-05-07T02:02:35;8.80;99.90
20827;DHT22;10574;52.508;13.236;2023-05-07T02:05:02;8.90;99.90
20827;DHT22;10574;52.508;13.236;2023-05-07T02:07:30;8.90;99.90
20827;DHT22;10574;52.508;13.236;2023-05-07T02:09:58;8.90;99.90
20827;DHT22;10574;52.508;13.236;2023-05-07T02:12:26;8.80;99.90
20827;DHT22;10574;52.508;13.236;2023-05-07T02:14:54;8.80;99.90
20827;DHT22;10574;52.508;13.236;2023-05-07T02:17:21;8.90;99.90
20827;DHT22;10574;52.508;13.236;2023-05-07T02:19:49;8.80;99.90
20827;DHT22;10574;52.508;13.236;2023-05-07T02:22:17;8.80;99.90
20827;DHT22;10574;52.508;13.236;2023-05-07T02:24:45;8.80;99.90
20827;DHT22;10574;52.508;13.236;2023-05-07T02:27:13;8.70;99.90
20827;DHT22;10574;52.508;13.236;2023-05-07T02:29:40;8.80;99.90
20827;DHT22;10574;52.508;13.236;2023-05-07T02:32:08;8.80;99.90
20827;DHT22;10574;52.508;13.236;2023-05-07T02:34:36;8.80;99.90
20827;DHT22;10574;52.508;13.236;2023-05-07T02:37:04;8.80;99.90
20827;DHT22;10574;52.508;13.236;2023-05-07T02:39:31;8.80;99.90
20827;DHT22;10574;52.508;13.236;2023-05-07T02:41:59;8.70;99.90
20827;DHT22;10574;52.508;13.236;2023-05-07T02:44:27;8.70;99.90
20827;DHT22;10574;52.508;13.236;2023-05-07T02:46:57;8.70;99.90
20827;DHT22;10574;52.508;13.236;2023-05-07T02:49:24;8.70;99.90
20827;DHT22;10574;52.508;13.236;2023-05-07T02:51:52;8.70;99.90
20827;DHT22;10574;52.508;13.236;2023-05-07T02:54:20;8.70;99.90
20827;DHT22;10574;52.508;13.236;2023-05-07T02:56:47;8.70;99.90
20827;DHT22;10574;52.508;13.236;2023-05-07T02:59:15;8.70;99.90
20827;DHT22;10574;52.508;13.236;2023-05-07T03:01:43;8.70;99.90
20827;DHT22;10574;52.508;13.236;2023-05-07T03:04:11;8.60;99.90
20827;DHT22;10574;52.508;13.236;2023-05-07T03:06:39;8.60;99.90
20827;DHT22;10574;52.508;13.236;2023-05-07T03:09:07;8.60;99.90
20827;DHT22;10574;52.508;13.236;2023-05-07T03:11:35;8.60;99.90
20827;DHT22;10574;52.508;13.236;2023-05-07T03:14:02;8.70;99.90
20827;DHT22;10574;52.508;13.236;2023-05-07T03:16:31;8.70;99.90
20827;DHT22;10574;52.508;13.236;2023-05-07T03:18:59;8.70;99.90
20827;DHT22;10574;52.508;13.236;2023-05-07T03:21:27;8.70;99.90
20827;DHT22;10574;52.508;13.236;2023-05-07T03:23:55;8.60;99.90
20827;DHT22;10574;52.508;13.236;2023-05-07T03:26:22;8.60;99.90
20827;DHT22;10574;52.508;13.236;2023-05-07T03:28:50;8.60;99.90
20827;DHT22;10574;52.508;13.236;2023-05-07T03:31:18;8.60;99.90
20827;DHT22;10574;52.508;13.236;2023-05-07T03:33:53;8.60;99.90
20827;DHT22;10574;52.508;13.236;2023-05-07T03:36:21;8.70;99.90
20827;DHT22;10574;52.508;13.236;2023-05-07T03:38:49;8.80;99.90
20827;DHT22;10574;52.508;13.236;2023-05-07T03:41:17;8.70;99.90
20827;DHT22;10574;52.508;13.236;2023-05-07T03:43:45;8.70;99.90
20827;DHT22;10574;52.508;13.236;2023-05-07T03:46:13;8.70;99.90
20827;DHT22;10574;52.508;13.236;2023-05-07T03:48:40;8.70;99.90
20827;DHT22;10574;52.508;13.236;2023-05-07T03:51:08;8.70;99.90
20827;DHT22;10574;52.508;13.236;2023-05-07T03:53:36;8.70;99.90
20827;DHT22;10574;52.508;13.236;2023-05-07T03:56:04;8.80;99.90
20827;DHT22;10574;52.508;13.236;2023-05-07T03:58:33;8.80;99.90
20827;DHT22;10574;52.508;13.236;2023-05-07T04:01:01;8.80;99.90
20827;DHT22;10574;52.508;13.236;2023-05-07T04:03:29;8.80;99.90
20827;DHT22;10574;52.508;13.236;2023-05-07T04:05:57;8.70;99.90
20827;DHT22;10574;52.508;13.236;2023-05-07T04:08:25;8.80;99.90
20827;DHT22;10574;52.508;13.236;2023-05-07T04:10:56;8.70;99.90
20827;DHT22;10574;52.508;13.236;2023-05-07T04:13:24;8.70;99.90
20827;DHT22;10574;52.508;13.236;2023-05-07T04:15:54;8.70;99.90
20827;DHT22;10574;52.508;13.236;2023-05-07T04:18:22;8.70;99.90
20827;DHT22;10574;52.508;13.236;2023-05-07T04:20:49;8.70;99.90
20827;DHT22;10574;52.508;13.236;2023-05-07T04:23:17;8.70;99.90
20827;DHT22;10574;52.508;13.236;2023-05-07T04:25:45;8.70;99.90
20827;DHT22;10574;52.508;13.236;2023-05-07T04:28:13;8.80;99.90
20827;DHT22;10574;52.508;13.236;2023-05-07T04:30:40;8.80;99.90
20827;DHT22;10574;52.508;13.236;2023-05-07T04:33:08;8.70;99.90
20827;DHT22;10574;52.508;13.236;2023-05-07T04:35:36;8.70;99.90
20827;DHT22;10574;52.508;13.236;2023-05-07T04:38:03;8.70;99.90
20827;DHT22;10574;52.508;13.236;2023-05-07T04:40:31;8.70;99.90
20827;DHT22;10574;52.508;13.236;2023-05-07T04:42:59;8.70;99.90
20827;DHT22;10574;52.508;13.236;2023-05-07T04:45:27;8.70;99.90
20827;DHT22;10574;52.508;13.236;2023-05-07T04:47:55;8.60;99.90
20827;DHT22;10574;52.508;13.236;2023-05-07T04:50:23;8.60;99.90
20827;DHT22;10574;52.508;13.236;2023-05-07T04:52:51;8.70;99.90
20827;DHT22;10574;52.508;13.236;2023-05-07T04:55:19;8.70;99.90
20827;DHT22;10574;52.508;13.236;2023-05-07T04:57:47;8.70;99.90
20827;DHT22;10574;52.508;13.236;2023-05-07T05:00:15;8.70;99.90
20827;DHT22;10574;52.508;13.236;2023-05-07T05:03:02;8.70;99.90
20827;DHT22;10574;52.508;13.236;2023-05-07T05:05:30;8.80;99.90
20827;DHT22;10574;52.508;13.236;2023-05-07T05:07:57;8.80;99.90
20827;DHT22;10574;52.508;13.236;2023-05-07T05:10:25;8.80;99.90
20827;DHT22;10574;52.508;13.236;2023-05-07T05:12:53;8.80;99.90
20827;DHT22;10574;52.508;13.236;2023-05-07T05:15:20;8.90;99.90
20827;DHT22;10574;52.508;13.236;2023-05-07T05:17:48;8.80;99.90
20827;DHT22;10574;52.508;13.236;2023-05-07T05:20:16;8.90;99.90
20827;DHT22;10574;52.508;13.236;2023-05-07T05:22:44;8.80;99.90
20827;DHT22;10574;52.508;13.236;2023-05-07T05:25:12;8.80;99.90
20827;DHT22;10574;52.508;13.236;2023-05-07T05:27:39;8.90;99.90
20827;DHT22;10574;52.508;13.236;2023-05-07T05:30:08;8.90;99.90
20827;DHT22;10574;52.508;13.236;2023-05-07T05:32:35;9.00;99.90
20827;DHT22;10574;52.508;13.236;2023-05-07T05:35:03;9.10;99.90
20827;DHT22;10574;52.508;13.236;2023-05-07T05:37:31;9.10;99.90
20827;DHT22;10574;52.508;13.236;2023-05-07T05:39:59;9.00;99.90
20827;DHT22;10574;52.508;13.236;2023-05-07T05:42:26;9.10;99.90
20827;DHT22;10574;52.508;13.236;2023-05-07T05:44:54;9.00;99.90
20827;DHT22;10574;52.508;13.236;2023-05-07T05:47:22;9.00;99.90
20827;DHT22;10574;52.508;13.236;2023-05-07T05:49:50;9.10;99.90
20827;DHT22;10574;52.508;13.236;2023-05-07T05:52:18;9.20;99.90
20827;DHT22;10574;52.508;13.236;2023-05-07T05:54:46;9.10;99.90
20827;DHT22;10574;52.508;13.236;2023-05-07T05:57:14;9.20;99.90
20827;DHT22;10574;52.508;13.236;2023-05-07T05:59:41;9.30;99.90
20827;DHT22;10574;52.508;13.236;2023-05-07T06:02:10;9.30;99.90
20827;DHT22;10574;52.508;13.236;2023-05-07T06:04:37;9.40;99.90
20827;DHT22;10574;52.508;13.236;2023-05-07T06:07:05;9.50;99.90
20827;DHT22;10574;52.508;13.236;2023-05-07T06:09:33;9.50;99.90
20827;DHT22;10574;52.508;13.236;2023-05-07T06:12:01;9.70;99.90
20827;DHT22;10574;52.508;13.236;2023-05-07T06:14:28;9.70;99.90
20827;DHT22;10574;52.508;13.236;2023-05-07T06:16:56;9.90;99.90
20827;DHT22;10574;52.508;13.236;2023-05-07T06:19:24;10.20;99.90
20827;DHT22;10574;52.508;13.236;2023-05-07T06:21:53;10.70;99.90
20827;DHT22;10574;52.508;13.236;2023-05-07T06:24:22;11.00;99.90
20827;DHT22;10574;52.508;13.236;2023-05-07T06:26:50;10.90;99.90
20827;DHT22;10574;52.508;13.236;2023-05-07T06:29:18;10.90;99.90
20827;DHT22;10574;52.508;13.236;2023-05-07T06:31:46;10.80;99.90
20827;DHT22;10574;52.508;13.236;2023-05-07T06:34:13;10.80;99.90
20827;DHT22;10574;52.508;13.236;2023-05-07T06:36:41;10.60;99.90
20827;DHT22;10574;52.508;13.236;2023-05-07T06:39:09;10.40;99.90
20827;DHT22;10574;52.508;13.236;2023-05-07T06:41:37;10.30;99.90
20827;DHT22;10574;52.508;13.236;2023-05-07T06:44:05;10.30;99.90
20827;DHT22;10574;52.508;13.236;2023-05-07T06:46:33;10.30;99.90
20827;DHT22;10574;52.508;13.236;2023-05-07T06:49:00;10.20;99.90
20827;DHT22;10574;52.508;13.236;2023-05-07T06:51:29;10.10;99.90
20827;DHT22;10574;52.508;13.236;2023-05-07T06:53:56;9.90;99.90
20827;DHT22;10574;52.508;13.236;2023-05-07T06:56:24;9.90;99.90
20827;DHT22;10574;52.508;13.236;2023-05-07T06:58:52;9.90;99.90
20827;DHT22;10574;52.508;13.236;2023-05-07T07:01:19;9.90;99.90
20827;DHT22;10574;52.508;13.236;2023-05-07T07:03:47;9.90;99.90
20827;DHT22;10574;52.508;13.236;2023-05-07T07:06:15;10.00;99.90
20827;DHT22;10574;52.508;13.236;2023-05-07T07:08:43;10.10;99.90
20827;DHT22;10574;52.508;13.236;2023-05-07T07:11:10;10.10;99.90
20827;DHT22;10574;52.508;13.236;2023-05-07T07:13:38;10.20;99.90
20827;DHT22;10574;52.508;13.236;2023-05-07T07:16:06;10.20;99.90
20827;DHT22;10574;52.508;13.236;2023-05-07T07:18:34;10.60;99.90
20827;DHT22;10574;52.508;13.236;2023-05-07T07:21:02;10.50;99.90
20827;DHT22;10574;52.508;13.236;2023-05-07T07:23:30;10.50;99.90
20827;DHT22;10574;52.508;13.236;2023-05-07T07:25:58;10.50;99.90
20827;DHT22;10574;52.508;13.236;2023-05-07T07:28:25;10.80;99.90
20827;DHT22;10574;52.508;13.236;2023-05-07T07:30:53;10.50;99.90
20827;DHT22;10574;52.508;13.236;2023-05-07T07:33:21;10.60;99.90
20827;DHT22;10574;52.508;13.236;2023-05-07T07:35:49;11.20;99.90
20827;DHT22;10574;52.508;13.236;2023-05-07T07:38:16;11.30;99.90
20827;DHT22;10574;52.508;13.236;2023-05-07T07:40:44;10.90;99.90
20827;DHT22;10574;52.508;13.236;2023-05-07T07:43:12;11.00;99.90
20827;DHT22;10574;52.508;13.236;2023-05-07T07:45:40;11.40;99.90
20827;DHT22;10574;52.508;13.236;2023-05-07T07:48:08;11.90;99.90
20827;DHT22;10574;52.508;13.236;2023-05-07T07:50:36;12.00;99.90
20827;DHT22;10574;52.508;13.236;2023-05-07T07:53:03;12.00;99.90
20827;DHT22;10574;52.508;13.236;2023-05-07T07:55:31;11.70;99.90
20827;DHT22;10574;52.508;13.236;2023-05-07T07:57:59;11.50;99.90
20827;DHT22;10574;52.508;13.236;2023-05-07T08:00:26;11.90;99.90
20827;DHT22;10574;52.508;13.236;2023-05-07T08:02:54;12.20;99.90
20827;DHT22;10574;52.508;13.236;2023-05-07T08:05:22;12.50;99.90
20827;DHT22;10574;52.508;13.236;2023-05-07T08:07:50;12.50;99.90
20827;DHT22;10574;52.508;13.236;2023-05-07T08:10:20;12.70;99.90
20827;DHT22;10574;52.508;13.236;2023-05-07T08:12:51;13.10;99.90
20827;DHT22;10574;52.508;13.236;2023-05-07T08:15:19;13.10;99.90
20827;DHT22;10574;52.508;13.236;2023-05-07T08:17:46;13.60;99.90
20827;DHT22;10574;52.508;13.236;2023-05-07T08:20:14;13.80;99.90
20827;DHT22;10574;52.508;13.236;2023-05-07T08:22:42;13.80;99.90
20827;DHT22;10574;52.508;13.236;2023-05-07T08:25:10;13.40;99.90
20827;DHT22;10574;52.508;13.236;2023-05-07T08:27:37;13.60;99.90
20827;DHT22;10574;52.508;13.236;2023-05-07T08:30:06;13.50;99.90
20827;DHT22;10574;52.508;13.236;2023-05-07T08:32:34;13.30;99.90
20827;DHT22;10574;52.508;13.236;2023-05-07T08:35:01;13.40;99.90
20827;DHT22;10574;52.508;13.236;2023-05-07T08:37:29;14.10;99.90
20827;DHT22;10574;52.508;13.236;2023-05-07T08:39:57;14.50;99.90
20827;DHT22;10574;52.508;13.236;2023-05-07T08:42:26;14.20;99.90
20827;DHT22;10574;52.508;13.236;2023-05-07T08:44:57;13.80;99.90
20827;DHT22;10574;52.508;13.236;2023-05-07T08:47:29;14.30;99.90
20827;DHT22;10574;52.508;13.236;2023-05-07T08:49:58;14.80;99.90
20827;DHT22;10574;52.508;13.236;2023-05-07T08:52:27;14.70;99.90
20827;DHT22;10574;52.508;13.236;2023-05-07T08:54:55;14.80;99.90
20827;DHT22;10574;52.508;13.236;2023-05-07T08:57:22;14.50;99.90
20827;DHT22;10574;52.508;13.236;2023-05-07T08:59:50;14.50;99.90
20827;DHT22;10574;52.508;13.236;2023-05-07T09:02:18;14.20;99.90
20827;DHT22;10574;52.508;13.236;2023-05-07T09:04:46;13.80;99.90
20827;DHT22;10574;52.508;13.236;2023-05-07T09:07:30;13.40;99.90
20827;DHT22;10574;52.508;13.236;2023-05-07T09:09:58;13.60;99.90
20827;DHT22;10574;52.508;13.236;2023-05-07T09:12:27;13.70;99.90
20827;DHT22;10574;52.508;13.236;2023-05-07T09:14:55;13.80;99.90
20827;DHT22;10574;52.508;13.236;2023-05-07T09:17:23;13.60;99.90
20827;DHT22;10574;52.508;13.236;2023-05-07T09:19:50;13.90;99.90
20827;DHT22;10574;52.508;13.236;2023-05-07T09:22:20;13.60;99.90
20827;DHT22;10574;52.508;13.236;2023-05-07T09:24:49;13.80;99.90
20827;DHT22;10574;52.508;13.236;2023-05-07T09:27:18;14.20;99.90
20827;DHT22;10574;52.508;13.236;2023-05-07T09:29:45;14.30;99.90
20827;DHT22;10574;52.508;13.236;2023-05-07T09:32:15;14.60;99.90
20827;DHT22;10574;52.508;13.236;2023-05-07T09:34:42;14.60;99.90
20827;DHT22;10574;52.508;13.236;2023-05-07T09:37:12;15.10;99.90
20827;DHT22;10574;52.508;13.236;2023-05-07T09:39:48;15.30;99.90
20827;DHT22;10574;52.508;13.236;2023-05-07T09:42:16;15.20;99.90
20827;DHT22;10574;52.508;13.236;2023-05-07T09:44:45;15.30;99.90
20827;DHT22;10574;52.508;13.236;2023-05-07T09:47:17;15.50;99.90
20827;DHT22;10574;52.508;13.236;2023-05-07T09:49:46;15.60;99.90
20827;DHT22;10574;52.508;13.236;2023-05-07T09:52:14;15.20;99.90
20827;DHT22;10574;52.508;13.236;2023-05-07T09:54:43;15.10;99.90
20827;DHT22;10574;52.508;13.236;2023-05-07T09:57:13;14.90;99.90
20827;DHT22;10574;52.508;13.236;2023-05-07T09:59:42;14.20;99.90
20827;DHT22;10574;52.508;13.236;2023-05-07T10:02:11;14.10;99.90
20827;DHT22;10574;52.508;13.236;2023-05-07T10:04:40;14.20;99.90
20827;DHT22;10574;52.508;13.236;2023-05-07T10:07:09;14.40;99.90
20827;DHT22;10574;52.508;13.236;2023-05-07T10:09:36;14.10;99.90
20827;DHT22;10574;52.508;13.236;2023-05-07T10:12:06;14.10;99.90
20827;DHT22;10574;52.508;13.236;2023-05-07T10:14:34;14.20;99.90
20827;DHT22;10574;52.508;13.236;2023-05-07T10:17:03;14.20;99.90
20827;DHT22;10574;52.508;13.236;2023-05-07T10:19:32;14.20;99.90
20827;DHT22;10574;52.508;13.236;2023-05-07T10:22:07;14.20;99.90
20827;DHT22;10574;52.508;13.236;2023-05-07T10:24:36;14.00;99.90
20827;DHT22;10574;52.508;13.236;2023-05-07T10:27:12;14.00;99.90
20827;DHT22;10574;52.508;13.236;2023-05-07T10:29:57;14.10;99.90
20827;DHT22;10574;52.508;13.236;2023-05-07T10:32:39;14.50;99.90
20827;DHT22;10574;52.508;13.236;2023-05-07T10:35:10;14.80;99.90
20827;DHT22;10574;52.508;13.236;2023-05-07T10:37:38;15.10;99.90
20827;DHT22;10574;52.508;13.236;2023-05-07T10:40:06;15.20;99.90
20827;DHT22;10574;52.508;13.236;2023-05-07T10:42:34;15.20;99.90
20827;DHT22;10574;52.508;13.236;2023-05-07T10:45:14;15.10;99.90
20827;DHT22;10574;52.508;13.236;2023-05-07T10:48:08;14.60;99.90
20827;DHT22;10574;52.508;13.236;2023-05-07T10:50:37;14.70;99.90
20827;DHT22;10574;52.508;13.236;2023-05-07T10:58:40;14.90;99.90
20827;DHT22;10574;52.508;13.236;2023-05-07T11:01:08;14.60;99.90
20827;DHT22;10574;52.508;13.236;2023-05-07T11:06:26;15.10;99.90
20827;DHT22;10574;52.508;13.236;2023-05-07T11:08:55;15.50;99.90
20827;DHT22;10574;52.508;13.236;2023-05-07T11:11:44;15.40;99.90
20827;DHT22;10574;52.508;13.236;2023-05-07T11:14:14;15.20;99.90
20827;DHT22;10574;52.508;13.236;2023-05-07T11:16:43;15.30;99.90
20827;DHT22;10574;52.508;13.236;2023-05-07T11:19:12;15.40;99.90
20827;DHT22;10574;52.508;13.236;2023-05-07T11:21:42;15.20;99.90
20827;DHT22;10574;52.508;13.236;2023-05-07T11:24:10;15.60;99.90
20827;DHT22;10574;52.508;13.236;2023-05-07T11:26:50;15.60;99.90
20827;DHT22;10574;52.508;13.236;2023-05-07T11:29:23;15.50;99.90
20827;DHT22;10574;52.508;13.236;2023-05-07T11:31:52;15.20;99.90
20827;DHT22;10574;52.508;13.236;2023-05-07T11:34:24;15.20;99.90
20827;DHT22;10574;52.508;13.236;2023-05-07T11:36:52;15.30;99.90
20827;DHT22;10574;52.508;13.236;2023-05-07T11:39:24;15.90;99.90
20827;DHT22;10574;52.508;13.236;2023-05-07T11:41:52;16.00;99.90
20827;DHT22;10574;52.508;13.236;2023-05-07T11:44:19;16.00;99.90
20827;DHT22;10574;52.508;13.236;2023-05-07T11:46:47;15.90;99.90
20827;DHT22;10574;52.508;13.236;2023-05-07T11:49:15;15.80;99.90
20827;DHT22;10574;52.508;13.236;2023-05-07T11:51:44;16.10;99.90
20827;DHT22;10574;52.508;13.236;2023-05-07T11:54:17;16.40;99.90
20827;DHT22;10574;52.508;13.236;2023-05-07T11:56:45;16.90;99.90
20827;DHT22;10574;52.508;13.236;2023-05-07T11:59:17;17.30;99.90
20827;DHT22;10574;52.508;13.236;2023-05-07T12:01:45;17.60;99.90
20827;DHT22;10574;52.508;13.236;2023-05-07T12:04:13;17.40;99.90
20827;DHT22;10574;52.508;13.236;2023-05-07T12:06:41;17.30;99.90
20827;DHT22;10574;52.508;13.236;2023-05-07T12:09:09;17.50;99.90
20827;DHT22;10574;52.508;13.236;2023-05-07T12:11:38;17.40;99.90
20827;DHT22;10574;52.508;13.236;2023-05-07T12:14:06;16.80;99.90
20827;DHT22;10574;52.508;13.236;2023-05-07T12:16:34;16.50;99.90
20827;DHT22;10574;52.508;13.236;2023-05-07T12:19:02;16.20;99.90
20827;DHT22;10574;52.508;13.236;2023-05-07T12:21:29;15.70;99.90
20827;DHT22;10574;52.508;13.236;2023-05-07T12:23:57;15.70;99.90
20827;DHT22;10574;52.508;13.236;2023-05-07T12:26:25;15.70;99.90
20827;DHT22;10574;52.508;13.236;2023-05-07T12:28:53;15.90;99.90
20827;DHT22;10574;52.508;13.236;2023-05-07T12:31:21;15.90;99.90
20827;DHT22;10574;52.508;13.236;2023-05-07T12:33:49;15.90;99.90
20827;DHT22;10574;52.508;13.236;2023-05-07T12:36:16;15.90;99.90
20827;DHT22;10574;52.508;13.236;2023-05-07T12:38:44;16.20;99.90
20827;DHT22;10574;52.508;13.236;2023-05-07T12:41:12;16.30;99.90
20827;DHT22;10574;52.508;13.236;2023-05-07T12:43:39;16.30;99.90
20827;DHT22;10574;52.508;13.236;2023-05-07T12:46:09;16.10;99.90
20827;DHT22;10574;52.508;13.236;2023-05-07T12:48:38;16.10;99.90
20827;DHT22;10574;52.508;13.236;2023-05-07T12:51:06;16.10;99.90
20827;DHT22;10574;52.508;13.236;2023-05-07T12:53:42;16.00;99.90
20827;DHT22;10574;52.508;13.236;2023-05-07T12:56:06;15.70;99.90
20827;DHT22;10574;52.508;13.236;2023-05-07T12:58:35;15.70;99.90
20827;DHT22;10574;52.508;13.236;2023-05-07T13:01:07;15.80;99.90
20827;DHT22;10574;52.508;13.236;2023-05-07T13:03:37;16.20;99.90
20827;DHT22;10574;52.508;13.236;2023-05-07T13:06:07;16.00;99.90
20827;DHT22;10574;52.508;13.236;2023-05-07T13:08:41;16.00;99.90
20827;DHT22;10574;52.508;13.236;2023-05-07T13:11:12;16.40;99.90
20827;DHT22;10574;52.508;13.236;2023-05-07T13:13:41;16.50;99.90
20827;DHT22;10574;52.508;13.236;2023-05-07T13:16:10;16.60;99.90
20827;DHT22;10574;52.508;13.236;2023-05-07T13:18:39;16.50;99.90
20827;DHT22;10574;52.508;13.236;2023-05-07T13:21:07;16.50;99.90
20827;DHT22;10574;52.508;13.236;2023-05-07T13:23:35;16.50;99.90
20827;DHT22;10574;52.508;13.236;2023-05-07T13:26:04;16.60;99.90
20827;DHT22;10574;52.508;13.236;2023-05-07T13:28:32;16.80;99.90
20827;DHT22;10574;52.508;13.236;2023-05-07T13:31:00;16.70;99.90
20827;DHT22;10574;52.508;13.236;2023-05-07T13:33:28;16.40;99.90
20827;DHT22;10574;52.508;13.236;2023-05-07T13:35:55;16.20;99.90
20827;DHT22;10574;52.508;13.236;2023-05-07T13:38:23;16.40;99.90
20827;DHT22;10574;52.508;13.236;2023-05-07T13:40:52;16.50;99.90
20827;DHT22;10574;52.508;13.236;2023-05-07T13:43:20;16.30;99.90
20827;DHT22;10574;52.508;13.236;2023-05-07T13:45:48;16.20;99.90
20827;DHT22;10574;52.508;13.236;2023-05-07T13:48:15;16.30;99.90
20827;DHT22;10574;52.508;13.236;2023-05-07T13:50:43;16.20;99.90
20827;DHT22;10574;52.508;13.236;2023-05-07T13:53:11;16.30;99.90
20827;DHT22;10574;52.508;13.236;2023-05-07T13:55:39;16.40;99.90
20827;DHT22;10574;52.508;13.236;2023-05-07T13:58:06;16.60;99.90
20827;DHT22;10574;52.508;13.236;2023-05-07T14:00:34;16.60;99.90
20827;DHT22;10574;52.508;13.236;2023-05-07T14:03:02;16.40;99.90
20827;DHT22;10574;52.508;13.236;2023-05-07T14:05:30;16.40;99.90
20827;DHT22;10574;52.508;13.236;2023-05-07T14:07:58;16.30;99.90
20827;DHT22;10574;52.508;13.236;2023-05-07T14:10:26;16.50;99.90
20827;DHT22;10574;52.508;13.236;2023-05-07T14:12:54;16.40;99.90
20827;DHT22;10574;52.508;13.236;2023-05-07T14:15:22;16.00;99.90
20827;DHT22;10574;52.508;13.236;2023-05-07T14:17:49;16.10;99.90
20827;DHT22;10574;52.508;13.236;2023-05-07T14:20:17;16.10;99.90
20827;DHT22;10574;52.508;13.236;2023-05-07T14:22:45;16.20;99.90
20827;DHT22;10574;52.508;13.236;2023-05-07T14:25:13;16.00;99.90
20827;DHT22;10574;52.508;13.236;2023-05-07T14:27:40;16.00;99.90
20827;DHT22;10574;52.508;13.236;2023-05-07T14:30:08;16.10;99.90
20827;DHT22;10574;52.508;13.236;2023-05-07T14:32:36;16.30;99.90
20827;DHT22;10574;52.508;13.236;2023-05-07T14:35:04;16.60;99.90
20827;DHT22;10574;52.508;13.236;2023-05-07T14:37:32;16.60;99.90
20827;DHT22;10574;52.508;13.236;2023-05-07T14:40:00;16.50;99.90
20827;DHT22;10574;52.508;13.236;2023-05-07T14:42:27;16.60;99.90
20827;DHT22;10574;52.508;13.236;2023-05-07T14:44:55;16.80;99.90
20827;DHT22;10574;52.508;13.236;2023-05-07T14:47:23;16.80;99.90
20827;DHT22;10574;52.508;13.236;2023-05-07T14:49:51;17.00;99.90
20827;DHT22;10574;52.508;13.236;2023-05-07T14:52:19;17.10;99.90
20827;DHT22;10574;52.508;13.236;2023-05-07T14:54:47;17.10;99.90
20827;DHT22;10574;52.508;13.236;2023-05-07T14:57:15;17.40;99.90
20827;DHT22;10574;52.508;13.236;2023-05-07T14:59:44;17.60;99.90
20827;DHT22;10574;52.508;13.236;2023-05-07T15:02:13;17.60;99.90
20827;DHT22;10574;52.508;13.236;2023-05-07T15:04:41;17.70;99.60
20827;DHT22;10574;52.508;13.236;2023-05-07T15:07:11;17.70;98.60
20827;DHT22;10574;52.508;13.236;2023-05-07T15:09:41;17.90;99.90
20827;DHT22;10574;52.508;13.236;2023-05-07T15:12:09;17.90;99.90
20827;DHT22;10574;52.508;13.236;2023-05-07T15:14:38;17.50;99.50
20827;DHT22;10574;52.508;13.236;2023-05-07T15:17:06;17.60;99.90
20827;DHT22;10574;52.508;13.236;2023-05-07T15:19:34;17.80;99.50
20827;DHT22;10574;52.508;13.236;2023-05-07T15:22:02;18.10;99.90
20827;DHT22;10574;52.508;13.236;2023-05-07T15:24:30;17.90;98.60
20827;DHT22;10574;52.508;13.236;2023-05-07T15:26:57;17.90;98.20
20827;DHT22;10574;52.508;13.236;2023-05-07T15:29:25;17.60;98.30
20827;DHT22;10574;52.508;13.236;2023-05-07T15:31:53;17.30;98.70
20827;DHT22;10574;52.508;13.236;2023-05-07T15:34:21;17.20;99.90
20827;DHT22;10574;52.508;13.236;2023-05-07T15:36:50;17.00;99.90
20827;DHT22;10574;52.508;13.236;2023-05-07T15:39:22;17.00;99.90